Cotter, Arkansas
Current Conditions -  °F | °C
As of 1:15 AM on Saturday 27 Dec 2014 (Local Time) from KFLP Reporting Station
Overcast Overcast  
Wind Chill: 48°   Ceiling: 800
Heat Index: 48°   Visibility: 10mi
Dew Point: 45°   Wind: 0mph
Humidity: 87%   Direction: NA
Pressure: 30.06"   Gusts: NA
Location:  36.27°N, 92.54°W
Report Text: KFLP 270715Z 00000KT 10SM OVC008 09/07 A3006 RMK AO1
Loading
Personal Weather Stations






























Interactive Weather Map New forecast layout! Learn more

10-Day Weather Forecast

Advertisements
Track Severe Weather on mobile